createdAt,value
2018-07-03T00:00:37.327Z,21.20
2018-07-03T00:01:37.389Z,21.14
2018-07-03T00:02:37.421Z,21.13
2018-07-03T00:03:37.473Z,21.11
2018-07-03T00:04:37.514Z,21.14
2018-07-03T00:05:37.568Z,21.06
2018-07-03T00:06:37.625Z,21.11
2018-07-03T00:07:37.650Z,21.04
2018-07-03T00:08:37.689Z,21.08
2018-07-03T00:09:37.748Z,21.11
2018-07-03T00:10:37.807Z,21.09
2018-07-03T00:11:37.842Z,21.16
2018-07-03T00:12:37.880Z,21.08
2018-07-03T00:13:37.931Z,21.01
2018-07-03T00:14:37.984Z,21.08
2018-07-03T00:15:38.074Z,21.01
2018-07-03T00:16:38.076Z,21.06
2018-07-03T00:17:38.118Z,20.99
2018-07-03T00:18:38.180Z,20.99
2018-07-03T00:19:38.212Z,20.91
2018-07-03T00:20:38.257Z,20.96
2018-07-03T00:21:38.309Z,20.98
2018-07-03T00:22:38.343Z,20.90
2018-07-03T00:23:38.389Z,20.91
2018-07-03T00:24:38.459Z,20.89
2018-07-03T00:25:38.497Z,20.96
2018-07-03T00:26:38.554Z,20.90
2018-07-03T00:27:38.622Z,20.96
2018-07-03T00:28:38.641Z,20.98
2018-07-03T00:29:38.653Z,20.95
2018-07-03T00:30:38.715Z,20.90
2018-07-03T00:31:38.761Z,20.83
2018-07-03T00:32:38.808Z,20.84
2018-07-03T00:33:38.848Z,20.81
2018-07-03T00:34:38.907Z,20.74
2018-07-03T00:35:39.009Z,20.79
2018-07-03T00:36:38.988Z,20.72
2018-07-03T00:37:39.012Z,20.80
2018-07-03T00:38:39.083Z,20.68
2018-07-03T00:39:39.131Z,20.69
2018-07-03T00:40:39.157Z,20.74
2018-07-03T00:41:39.216Z,20.66
2018-07-03T00:42:39.256Z,20.69
2018-07-03T00:43:39.328Z,20.62
2018-07-03T00:44:39.336Z,20.68
2018-07-03T00:45:39.403Z,20.54
2018-07-03T00:46:39.464Z,20.54
2018-07-03T00:47:39.491Z,20.59
2018-07-03T00:48:39.528Z,20.50
2018-07-03T00:49:39.576Z,20.58
2018-07-03T00:50:39.620Z,20.54
2018-07-03T00:51:39.672Z,20.59
2018-07-03T00:52:39.716Z,20.50
2018-07-03T00:53:39.977Z,20.49
2018-07-03T00:54:39.834Z,20.43
2018-07-03T00:55:39.897Z,20.39
2018-07-03T00:56:39.919Z,20.38
2018-07-03T00:57:39.956Z,20.47
2018-07-03T00:58:39.986Z,20.47
2018-07-03T00:59:40.064Z,20.47
2018-07-03T01:00:40.095Z,20.49
2018-07-03T01:01:40.146Z,20.51
2018-07-03T01:02:40.164Z,20.47
2018-07-03T01:03:40.213Z,20.51
2018-07-03T01:04:40.270Z,20.43
2018-07-03T01:05:40.308Z,20.42
2018-07-03T01:06:40.370Z,20.46
2018-07-03T01:07:40.438Z,20.43
2018-07-03T01:08:40.465Z,20.49
2018-07-03T01:09:40.496Z,20.35
2018-07-03T01:10:40.567Z,20.46
2018-07-03T01:11:40.591Z,20.38
2018-07-03T01:12:40.654Z,20.39
2018-07-03T01:13:40.676Z,20.25
2018-07-03T01:14:40.733Z,20.27
2018-07-03T01:15:40.763Z,20.24
2018-07-03T01:16:40.828Z,20.23
2018-07-03T01:17:40.878Z,20.21
2018-07-03T01:18:40.894Z,20.28
2018-07-03T01:19:40.951Z,20.09
2018-07-03T01:20:41.017Z,20.13
2018-07-03T01:21:41.051Z,20.13
2018-07-03T01:22:41.077Z,20.10
2018-07-03T01:23:41.132Z,20.09
2018-07-03T01:24:41.173Z,20.10
2018-07-03T01:25:41.211Z,20.15
2018-07-03T01:26:41.276Z,20.15
2018-07-03T01:27:41.318Z,20.10
2018-07-03T01:28:41.354Z,20.16
2018-07-03T01:29:41.395Z,20.16
2018-07-03T01:30:41.441Z,20.18
2018-07-03T01:31:41.482Z,20.12
2018-07-03T01:32:41.530Z,20.12
2018-07-03T01:33:41.588Z,20.13
2018-07-03T01:34:41.634Z,20.09
2018-07-03T01:35:41.679Z,20.05
2018-07-03T01:36:41.716Z,20.06
2018-07-03T01:37:41.777Z,20.08
2018-07-03T01:38:41.838Z,20.09
2018-07-03T01:39:41.875Z,20.00
2018-07-03T01:40:41.921Z,20.08
2018-07-03T01:41:41.959Z,20.06
2018-07-03T01:42:42.014Z,19.98
2018-07-03T01:43:42.049Z,20.10
2018-07-03T01:44:42.072Z,20.08
2018-07-03T01:45:42.152Z,20.09
2018-07-03T01:46:42.192Z,20.02
2018-07-03T01:47:42.244Z,20.00
2018-07-03T01:48:42.282Z,19.95
2018-07-03T01:49:42.319Z,19.93
2018-07-03T01:50:42.626Z,20.00
2018-07-03T01:51:42.424Z,20.02
2018-07-03T01:52:42.473Z,19.98
2018-07-03T01:53:42.502Z,19.97
2018-07-03T01:54:42.588Z,19.93
2018-07-03T01:55:42.613Z,19.91
2018-07-03T01:56:42.610Z,19.87
2018-07-03T01:57:42.699Z,19.90
2018-07-03T01:58:42.731Z,19.95
2018-07-03T01:59:42.773Z,19.91
2018-07-03T02:00:42.818Z,19.84
2018-07-03T02:01:42.868Z,19.86
2018-07-03T02:02:42.898Z,19.90
2018-07-03T02:03:42.951Z,19.95
2018-07-03T02:04:42.983Z,19.93
2018-07-03T02:05:43.041Z,19.93
2018-07-03T02:06:43.133Z,19.88
2018-07-03T02:07:43.138Z,19.87
2018-07-03T02:08:43.167Z,19.93
2018-07-03T02:09:43.213Z,19.78
2018-07-03T02:10:43.256Z,19.83
2018-07-03T02:11:43.299Z,19.86
2018-07-03T02:12:43.355Z,19.79
2018-07-03T02:13:43.458Z,19.84
2018-07-03T02:14:43.459Z,19.84
2018-07-03T02:15:43.517Z,19.78
2018-07-03T02:16:43.530Z,19.79
2018-07-03T02:17:43.585Z,19.69
2018-07-03T02:18:43.632Z,19.75
2018-07-03T02:19:43.673Z,19.73
2018-07-03T02:20:43.711Z,19.65
2018-07-03T02:21:43.773Z,19.65
2018-07-03T02:22:43.828Z,19.73
2018-07-03T02:23:43.873Z,19.68
2018-07-03T02:24:43.915Z,19.69
2018-07-03T02:25:43.923Z,19.68
2018-07-03T02:26:44.007Z,19.65
2018-07-03T02:27:44.034Z,19.60
2018-07-03T02:28:44.091Z,19.63
2018-07-03T02:29:44.133Z,19.65
2018-07-03T02:30:44.155Z,19.60
2018-07-03T02:31:44.219Z,19.61
2018-07-03T02:32:44.249Z,19.58
2018-07-03T02:33:44.319Z,19.65
2018-07-03T02:34:44.404Z,19.53
2018-07-03T02:35:44.393Z,19.57
2018-07-03T02:36:44.695Z,19.57
2018-07-03T02:37:44.490Z,19.60
2018-07-03T02:38:44.531Z,19.60
2018-07-03T02:39:44.597Z,19.57
2018-07-03T02:40:44.612Z,19.57
2018-07-03T02:41:44.673Z,19.68
2018-07-03T02:42:44.712Z,19.58
2018-07-03T02:43:44.762Z,19.65
2018-07-03T02:44:44.779Z,19.60
2018-07-03T02:45:44.835Z,19.58
2018-07-03T02:46:44.870Z,19.57
2018-07-03T02:47:44.964Z,19.43
2018-07-03T02:48:45.023Z,19.47
2018-07-03T02:49:45.026Z,19.47
2018-07-03T02:50:45.062Z,19.46
2018-07-03T02:51:45.122Z,19.42
2018-07-03T02:52:45.157Z,19.42
2018-07-03T02:53:45.226Z,19.39
2018-07-03T02:54:45.234Z,19.38
2018-07-03T02:55:45.281Z,19.39
2018-07-03T02:56:45.344Z,19.39
2018-07-03T02:57:45.399Z,19.38
2018-07-03T02:58:45.451Z,19.35
2018-07-03T02:59:45.739Z,19.40
2018-07-03T03:00:45.553Z,19.28
2018-07-03T03:01:45.598Z,19.29
2018-07-03T03:02:45.627Z,19.28
2018-07-03T03:03:45.661Z,19.25
2018-07-03T03:04:45.693Z,19.38
2018-07-03T03:05:45.771Z,19.38
2018-07-03T03:06:45.852Z,19.32
2018-07-03T03:07:45.839Z,19.29
2018-07-03T03:08:45.890Z,19.32
2018-07-03T03:09:45.932Z,19.29
2018-07-03T03:10:45.978Z,19.31
2018-07-03T03:11:46.014Z,19.24
2018-07-03T03:12:46.063Z,19.17
2018-07-03T03:13:46.107Z,19.14
2018-07-03T03:14:46.196Z,19.23
2018-07-03T03:15:46.217Z,19.20
2018-07-03T03:16:46.226Z,19.21
2018-07-03T03:17:46.497Z,19.14
2018-07-03T03:18:46.341Z,19.11
2018-07-03T03:19:46.385Z,19.15
2018-07-03T03:20:46.442Z,19.17
2018-07-03T03:21:46.474Z,19.17
2018-07-03T03:22:46.532Z,19.21
2018-07-03T03:23:46.580Z,19.18
2018-07-03T03:24:46.605Z,19.17
2018-07-03T03:25:46.654Z,19.08
2018-07-03T03:26:46.704Z,19.11
2018-07-03T03:27:46.741Z,19.06
2018-07-03T03:28:46.969Z,19.02
2018-07-03T03:29:46.840Z,18.97
2018-07-03T03:30:46.860Z,18.97
2018-07-03T03:31:46.922Z,18.92
2018-07-03T03:32:46.965Z,18.90
2018-07-03T03:33:47.017Z,18.94
2018-07-03T03:34:47.057Z,18.94
2018-07-03T03:35:47.101Z,18.86
2018-07-03T03:36:47.137Z,18.76
2018-07-03T03:37:47.201Z,18.92
2018-07-03T03:38:47.229Z,18.94
2018-07-03T03:39:47.264Z,18.76
2018-07-03T03:40:47.515Z,18.84
2018-07-03T03:41:47.340Z,18.86
2018-07-03T03:42:47.419Z,18.76
2018-07-03T03:43:47.501Z,18.83
2018-07-03T03:44:47.507Z,18.76
2018-07-03T03:45:47.562Z,18.72
2018-07-03T03:46:47.600Z,18.70
2018-07-03T03:47:47.641Z,18.72
2018-07-03T03:48:47.656Z,18.74
2018-07-03T03:49:47.708Z,18.70
2018-07-03T03:50:47.775Z,18.72
2018-07-03T03:51:47.803Z,18.76
2018-07-03T03:52:48.027Z,18.54
2018-07-03T03:53:47.895Z,18.61
2018-07-03T03:54:47.978Z,18.52
2018-07-03T03:55:47.981Z,18.55
2018-07-03T03:56:48.023Z,18.55
2018-07-03T03:57:48.074Z,18.52
2018-07-03T03:58:48.131Z,18.55
2018-07-03T03:59:48.167Z,18.52
2018-07-03T04:00:48.261Z,18.52
2018-07-03T04:01:48.250Z,18.47
2018-07-03T04:02:48.317Z,18.50
2018-07-03T04:03:48.593Z,18.57
2018-07-03T04:04:48.407Z,18.52
2018-07-03T04:06:48.491Z,18.57
2018-07-03T04:07:48.521Z,18.58
2018-07-03T04:08:48.578Z,18.52
2018-07-03T04:09:48.627Z,18.52
2018-07-03T04:10:48.673Z,18.46
2018-07-03T04:11:48.710Z,18.49
2018-07-03T04:12:48.737Z,18.46
2018-07-03T04:13:48.783Z,18.44
2018-07-03T04:14:48.827Z,18.47
2018-07-03T04:15:48.882Z,18.43
2018-07-03T04:16:48.926Z,18.37
2018-07-03T04:17:49.017Z,18.43
2018-07-03T04:18:49.012Z,18.42
2018-07-03T04:19:49.066Z,18.46
2018-07-03T04:20:49.105Z,18.44
2018-07-03T04:21:49.138Z,18.42
2018-07-03T04:22:49.181Z,18.43
2018-07-03T04:23:49.245Z,18.47
2018-07-03T04:24:49.311Z,18.46
2018-07-03T04:25:49.329Z,18.37
2018-07-03T04:26:49.642Z,18.36
2018-07-03T04:27:49.427Z,18.34
2018-07-03T04:28:49.474Z,18.34
2018-07-03T04:29:49.517Z,18.37
2018-07-03T04:30:49.549Z,18.34
2018-07-03T04:31:49.596Z,18.36
2018-07-03T04:32:49.659Z,18.28
2018-07-03T04:33:49.670Z,18.34
2018-07-03T04:34:49.731Z,18.24
2018-07-03T04:35:49.788Z,18.21
2018-07-03T04:36:49.792Z,18.22
2018-07-03T04:37:49.850Z,18.25
2018-07-03T04:38:50.109Z,18.24
2018-07-03T04:39:49.994Z,18.25
2018-07-03T04:40:49.996Z,18.21
2018-07-03T04:41:50.021Z,18.33
2018-07-03T04:42:50.070Z,18.25
2018-07-03T04:43:50.102Z,18.17
2018-07-03T04:44:50.163Z,18.28
2018-07-03T04:45:50.202Z,18.22
2018-07-03T04:46:50.256Z,18.18
2018-07-03T04:47:50.281Z,18.24
2018-07-03T04:48:50.350Z,18.17
2018-07-03T04:49:50.388Z,18.18
2018-07-03T04:50:50.674Z,18.18
2018-07-03T04:51:50.467Z,18.19
2018-07-03T04:52:50.509Z,18.19
2018-07-03T04:53:50.582Z,18.21
2018-07-03T04:54:50.601Z,18.24
2018-07-03T04:55:50.668Z,18.13
2018-07-03T04:56:50.707Z,18.13
2018-07-03T04:57:50.728Z,18.15
2018-07-03T04:58:50.782Z,18.18
2018-07-03T04:59:50.862Z,18.13
2018-07-03T05:00:50.862Z,18.15
2018-07-03T05:01:50.906Z,18.18
2018-07-03T05:02:50.959Z,18.15
2018-07-03T05:03:51.014Z,18.04
2018-07-03T05:04:51.064Z,18.07
2018-07-03T05:05:51.105Z,18.15
2018-07-03T05:06:51.162Z,18.04
2018-07-03T05:07:51.192Z,18.10
2018-07-03T05:08:51.284Z,18.00
2018-07-03T05:09:51.279Z,18.07
2018-07-03T05:10:51.354Z,18.15
2018-07-03T05:11:51.379Z,18.12
2018-07-03T05:12:51.381Z,18.07
2018-07-03T05:13:51.448Z,18.07
2018-07-03T05:14:51.485Z,18.10
2018-07-03T05:15:51.523Z,18.06
2018-07-03T05:16:51.775Z,18.09
2018-07-03T05:17:51.624Z,18.12
2018-07-03T05:18:51.688Z,18.04
2018-07-03T05:19:51.715Z,18.09
2018-07-03T05:20:51.762Z,18.10
2018-07-03T05:21:51.785Z,18.00
2018-07-03T05:22:51.831Z,18.06
2018-07-03T05:23:51.890Z,18.02
2018-07-03T05:24:51.923Z,17.99
2018-07-03T05:25:51.975Z,18.02
2018-07-03T05:26:52.004Z,17.99
2018-07-03T05:27:52.039Z,17.95
2018-07-03T05:28:52.310Z,17.94
2018-07-03T05:29:52.188Z,17.88
2018-07-03T05:30:52.196Z,17.92
2018-07-03T05:31:52.255Z,17.91
2018-07-03T05:32:52.281Z,17.91
2018-07-03T05:33:52.334Z,17.79
2018-07-03T05:34:52.383Z,17.87
2018-07-03T05:35:52.411Z,17.82
2018-07-03T05:36:52.449Z,17.82
2018-07-03T05:37:52.508Z,17.85
2018-07-03T05:38:52.548Z,17.82
2018-07-03T05:39:52.565Z,17.79
2018-07-03T05:40:52.634Z,17.76
2018-07-03T05:41:52.696Z,17.81
2018-07-03T05:42:52.772Z,17.76
2018-07-03T05:43:52.776Z,17.73
2018-07-03T05:44:53.014Z,17.71
2018-07-03T05:45:52.860Z,17.74
2018-07-03T05:46:52.920Z,17.71
2018-07-03T05:47:52.955Z,17.69
2018-07-03T05:48:52.971Z,17.76
2018-07-03T05:49:53.041Z,17.66
2018-07-03T05:50:53.084Z,17.69
2018-07-03T05:51:53.110Z,17.69
2018-07-03T05:52:53.182Z,17.63
2018-07-03T05:53:53.217Z,17.59
2018-07-03T05:54:53.258Z,17.59
2018-07-03T05:55:53.284Z,17.55
2018-07-03T05:56:53.325Z,17.64
2018-07-03T05:57:53.371Z,17.59
2018-07-03T05:58:53.421Z,17.59
2018-07-03T05:59:53.485Z,17.54
2018-07-03T06:00:53.529Z,17.59
2018-07-03T06:01:53.562Z,17.63
2018-07-03T06:02:53.637Z,17.64
2018-07-03T06:03:53.691Z,17.64
2018-07-03T06:04:53.691Z,17.63
2018-07-03T06:05:53.710Z,17.66
2018-07-03T06:06:53.776Z,17.62
2018-07-03T06:07:53.818Z,17.57
2018-07-03T06:08:54.109Z,17.62
2018-07-03T06:09:53.908Z,17.55
2018-07-03T06:10:53.940Z,17.63
2018-07-03T06:11:53.990Z,17.64
2018-07-03T06:12:54.049Z,17.51
2018-07-03T06:13:54.064Z,17.50
2018-07-03T06:14:54.144Z,17.54
2018-07-03T06:15:54.168Z,17.53
2018-07-03T06:16:54.450Z,17.44
2018-07-03T06:17:54.244Z,17.59
2018-07-03T06:18:54.304Z,17.50
2018-07-03T06:19:54.342Z,17.53
2018-07-03T06:20:54.410Z,17.44
2018-07-03T06:21:54.425Z,17.44
2018-07-03T06:22:54.476Z,17.59
2018-07-03T06:23:54.524Z,17.48
2018-07-03T06:24:54.771Z,17.55
2018-07-03T06:25:54.617Z,17.62
2018-07-03T06:26:54.673Z,17.47
2018-07-03T06:27:54.730Z,17.51
2018-07-03T06:28:54.855Z,17.54
2018-07-03T06:29:54.857Z,17.50
2018-07-03T06:30:54.840Z,17.47
2018-07-03T06:31:54.870Z,17.57
2018-07-03T06:32:54.971Z,17.62
2018-07-03T06:33:54.954Z,17.43
2018-07-03T06:34:55.004Z,17.47
2018-07-03T06:35:55.049Z,17.44
2018-07-03T06:36:55.289Z,17.50
2018-07-03T06:37:55.136Z,17.53
2018-07-03T06:38:55.175Z,17.53
2018-07-03T06:39:55.229Z,17.50
2018-07-03T06:40:55.268Z,17.36
2018-07-03T06:41:55.284Z,17.48
2018-07-03T06:42:55.347Z,17.51
2018-07-03T06:43:55.395Z,17.43
2018-07-03T06:44:55.438Z,17.44
2018-07-03T06:45:55.490Z,17.43
2018-07-03T06:46:55.538Z,17.46
2018-07-03T06:47:55.583Z,17.46
2018-07-03T06:48:55.817Z,17.32
2018-07-03T06:49:55.672Z,17.44
2018-07-03T06:50:55.713Z,17.29
2018-07-03T06:51:55.772Z,17.28
2018-07-03T06:52:55.812Z,17.32
2018-07-03T06:53:55.818Z,17.38
2018-07-03T06:54:55.857Z,17.38
2018-07-03T06:55:55.965Z,17.29
2018-07-03T06:56:55.979Z,17.35
2018-07-03T06:57:56.082Z,17.38
2018-07-03T06:58:56.046Z,17.40
2018-07-03T06:59:56.338Z,17.40
2018-07-03T07:00:56.151Z,17.41
2018-07-03T07:01:56.168Z,17.36
2018-07-03T07:02:56.225Z,17.38
2018-07-03T07:03:56.273Z,17.35
2018-07-03T07:04:56.331Z,17.47
2018-07-03T07:05:56.362Z,17.38
2018-07-03T07:06:56.403Z,17.35
2018-07-03T07:07:56.424Z,17.44
2018-07-03T07:08:56.562Z,17.41
2018-07-03T07:09:56.519Z,17.30
2018-07-03T07:10:56.751Z,17.32
2018-07-03T07:11:56.609Z,17.40
2018-07-03T07:12:56.650Z,17.35
2018-07-03T07:13:56.700Z,17.32
2018-07-03T07:14:56.778Z,17.38
2018-07-03T07:15:56.761Z,17.29
2018-07-03T07:16:56.834Z,17.25
2018-07-03T07:17:56.895Z,17.26
2018-07-03T07:18:56.940Z,17.25
2018-07-03T07:19:57.000Z,17.23
2018-07-03T07:20:57.064Z,17.15
2018-07-03T07:21:57.051Z,17.13
2018-07-03T07:22:57.318Z,17.06
2018-07-03T07:23:57.159Z,17.18
2018-07-03T07:24:57.184Z,17.11
2018-07-03T07:25:57.207Z,17.08
2018-07-03T07:26:57.260Z,17.00
2018-07-03T07:27:57.303Z,17.06
2018-07-03T07:28:57.332Z,16.99
2018-07-03T07:29:57.378Z,17.10
2018-07-03T07:30:57.479Z,17.11
2018-07-03T07:31:57.493Z,17.15
2018-07-03T07:32:57.549Z,17.20
2018-07-03T07:33:57.635Z,17.26
2018-07-03T07:34:57.622Z,17.32
2018-07-03T07:35:57.703Z,17.22
2018-07-03T07:36:57.722Z,17.23
2018-07-03T07:37:57.797Z,17.25
2018-07-03T07:38:57.976Z,17.23
2018-07-03T07:39:57.848Z,17.32
2018-07-03T07:40:57.883Z,17.28
2018-07-03T07:41:57.907Z,17.33
2018-07-03T07:42:57.971Z,17.25
2018-07-03T07:43:58.029Z,17.28
2018-07-03T07:44:58.097Z,17.38
2018-07-03T07:45:58.122Z,17.30
2018-07-03T07:46:58.138Z,17.29
2018-07-03T07:47:58.213Z,17.29
2018-07-03T07:48:58.213Z,17.25
2018-07-03T07:49:58.456Z,17.26
2018-07-03T07:50:58.312Z,17.26
2018-07-03T07:51:58.358Z,17.23
2018-07-03T07:52:58.400Z,17.18
2018-07-03T07:53:58.444Z,17.18
2018-07-03T07:54:58.576Z,17.15
2018-07-03T07:55:58.531Z,17.11
2018-07-03T07:56:58.603Z,17.11
2018-07-03T07:57:58.629Z,17.03
2018-07-03T07:58:58.692Z,16.99
2018-07-03T07:59:58.724Z,17.06
2018-07-03T08:00:58.761Z,17.07
2018-07-03T08:01:58.777Z,17.06
2018-07-03T08:02:58.827Z,16.99
2018-07-03T08:03:58.856Z,17.04
2018-07-03T08:04:58.906Z,17.04
2018-07-03T08:05:58.986Z,17.06
2018-07-03T08:06:59.014Z,17.03
2018-07-03T08:07:59.116Z,17.00
2018-07-03T08:08:59.105Z,16.95
2018-07-03T08:09:59.153Z,16.95
2018-07-03T08:10:59.191Z,16.99
2018-07-03T08:11:59.225Z,16.88
2018-07-03T08:12:59.480Z,17.04
2018-07-03T08:13:59.323Z,16.95
2018-07-03T08:14:59.360Z,16.98
2018-07-03T08:15:59.418Z,16.92
2018-07-03T08:16:59.456Z,16.95
2018-07-03T08:17:59.533Z,16.96
2018-07-03T08:18:59.507Z,16.93
2018-07-03T08:19:59.601Z,16.90
2018-07-03T08:20:59.622Z,16.93
2018-07-03T08:21:59.650Z,16.92
2018-07-03T08:22:59.692Z,16.95
2018-07-03T08:23:59.978Z,16.96
2018-07-03T08:24:59.789Z,16.90
2018-07-03T08:25:59.818Z,16.98
2018-07-03T08:26:59.881Z,16.90
2018-07-03T08:27:59.975Z,16.98
2018-07-03T08:28:59.951Z,16.85
2018-07-03T08:30:00.008Z,16.93
2018-07-03T08:31:00.099Z,16.93
2018-07-03T08:32:00.079Z,16.96
2018-07-03T08:33:00.130Z,16.93
2018-07-03T08:34:00.214Z,16.95
2018-07-03T08:35:00.252Z,17.00
2018-07-03T08:36:00.294Z,17.03
2018-07-03T08:37:00.334Z,17.04
2018-07-03T08:38:00.374Z,17.04
2018-07-03T08:39:00.387Z,16.99
2018-07-03T08:40:00.442Z,16.98
2018-07-03T08:41:00.493Z,17.10
2018-07-03T08:42:00.531Z,17.13
2018-07-03T08:43:00.584Z,17.14
2018-07-03T08:44:00.639Z,17.15
2018-07-03T08:45:00.648Z,17.22
2018-07-03T08:46:00.899Z,17.23
2018-07-03T08:47:00.730Z,17.28
2018-07-03T08:48:00.807Z,17.28
2018-07-03T08:49:00.880Z,17.20
2018-07-03T08:50:00.903Z,17.22
2018-07-03T08:51:00.920Z,17.30
2018-07-03T08:52:01.113Z,17.25
2018-07-03T08:53:01.001Z,17.26
2018-07-03T08:54:01.035Z,17.44
2018-07-03T08:55:01.141Z,17.30
2018-07-03T08:56:01.184Z,17.28
2018-07-03T08:57:01.382Z,17.32
2018-07-03T08:58:01.195Z,17.36
2018-07-03T08:59:01.256Z,17.33
2018-07-03T09:00:01.331Z,17.26
2018-07-03T09:01:01.373Z,17.40
2018-07-03T09:02:01.408Z,17.44
2018-07-03T09:03:01.467Z,17.32
2018-07-03T09:04:01.506Z,17.47
2018-07-03T09:05:01.540Z,17.38
2018-07-03T09:06:01.567Z,17.46
2018-07-03T09:07:01.625Z,17.30
2018-07-03T09:08:01.675Z,17.41
2018-07-03T09:09:01.693Z,17.41
2018-07-03T09:10:01.741Z,17.46
2018-07-03T09:11:01.770Z,17.32
2018-07-03T09:12:01.893Z,17.36
2018-07-03T09:13:01.865Z,17.32
2018-07-03T09:14:01.937Z,17.32
2018-07-03T09:15:01.968Z,17.32
2018-07-03T09:16:02.064Z,17.32
2018-07-03T09:17:02.051Z,17.32
2018-07-03T09:18:02.129Z,17.41
2018-07-03T09:19:02.136Z,17.46
2018-07-03T09:20:02.209Z,17.33
2018-07-03T09:21:02.243Z,17.43
2018-07-03T09:22:02.264Z,17.47
2018-07-03T09:23:02.305Z,17.43
2018-07-03T09:24:02.356Z,17.46
2018-07-03T09:25:02.422Z,17.46
2018-07-03T09:26:02.494Z,17.47
2018-07-03T09:27:02.494Z,17.53
2018-07-03T09:28:02.531Z,17.46
2018-07-03T09:29:02.625Z,17.47
2018-07-03T09:30:02.636Z,17.48
2018-07-03T09:31:02.707Z,17.48
2018-07-03T09:32:02.764Z,17.55
2018-07-03T09:33:02.997Z,17.51
2018-07-03T09:34:02.804Z,17.55
2018-07-03T09:35:02.833Z,17.50
2018-07-03T09:36:02.889Z,17.59
2018-07-03T09:37:02.934Z,17.62
2018-07-03T09:38:02.993Z,17.63
2018-07-03T09:39:03.062Z,17.57
2018-07-03T09:40:03.069Z,17.67
2018-07-03T09:41:03.100Z,17.66
2018-07-03T09:42:03.164Z,17.59
2018-07-03T09:43:03.191Z,17.59
2018-07-03T09:44:03.232Z,17.59
2018-07-03T09:45:03.279Z,17.67
2018-07-03T09:46:03.313Z,17.57
2018-07-03T09:47:03.365Z,17.64
2018-07-03T09:48:03.429Z,17.59
2018-07-03T09:49:03.467Z,17.63
2018-07-03T09:50:03.541Z,17.64
2018-07-03T09:51:03.519Z,17.63
2018-07-03T09:52:03.614Z,17.59
2018-07-03T09:53:03.621Z,17.55
2018-07-03T09:54:03.719Z,17.62
2018-07-03T09:55:03.748Z,17.63
2018-07-03T09:56:03.771Z,17.51
2018-07-03T09:57:03.791Z,17.63
2018-07-03T09:58:03.834Z,17.57
2018-07-03T09:59:03.886Z,17.67
2018-07-03T10:00:03.951Z,17.57
2018-07-03T10:01:03.987Z,17.55
2018-07-03T10:02:04.040Z,17.64
2018-07-03T10:03:04.089Z,17.51
2018-07-03T10:04:04.086Z,17.51
2018-07-03T10:05:04.143Z,17.48
2018-07-03T10:06:04.196Z,17.50
2018-07-03T10:07:04.250Z,17.44
2018-07-03T10:08:04.305Z,17.46
2018-07-03T10:09:04.367Z,17.50
2018-07-03T10:10:04.355Z,17.59
2018-07-03T10:11:04.415Z,17.47
2018-07-03T10:12:04.468Z,17.55
2018-07-03T10:13:04.558Z,17.59
2018-07-03T10:14:04.560Z,17.57
2018-07-03T10:15:04.584Z,17.63
2018-07-03T10:16:04.692Z,17.66
2018-07-03T10:17:04.681Z,17.62
2018-07-03T10:18:04.715Z,17.69
2018-07-03T10:19:04.783Z,17.71
2018-07-03T10:20:04.834Z,17.71
2018-07-03T10:21:04.868Z,17.64
2018-07-03T10:22:05.149Z,17.69
2018-07-03T10:23:04.951Z,17.76
2018-07-03T10:24:05.027Z,17.73
2018-07-03T10:25:05.037Z,17.76
2018-07-03T10:26:05.073Z,17.88
2018-07-03T10:27:05.126Z,17.82
2018-07-03T10:28:05.133Z,17.84
2018-07-03T10:29:05.192Z,17.78
2018-07-03T10:30:05.263Z,17.78
2018-07-03T10:31:05.309Z,17.78
2018-07-03T10:32:05.334Z,17.79
2018-07-03T10:33:05.390Z,17.78
2018-07-03T10:34:05.672Z,17.84
2018-07-03T10:35:05.510Z,17.79
2018-07-03T10:36:05.533Z,17.79
2018-07-03T10:37:05.576Z,17.99
2018-07-03T10:38:05.635Z,17.99
2018-07-03T10:39:05.648Z,18.00
2018-07-03T10:40:05.673Z,17.95
2018-07-03T10:41:05.758Z,18.07
2018-07-03T10:42:05.778Z,18.24
2018-07-03T10:43:05.846Z,18.49
2018-07-03T10:44:05.887Z,18.84
2018-07-03T10:45:05.925Z,19.25
2018-07-03T10:46:05.955Z,19.68
2018-07-03T10:47:05.986Z,20.02
2018-07-03T10:48:06.067Z,20.38
2018-07-03T10:49:06.117Z,20.74
2018-07-03T10:50:06.158Z,21.16
2018-07-03T10:51:06.199Z,21.20
2018-07-03T10:52:06.220Z,21.46
2018-07-03T10:53:06.294Z,21.69
2018-07-03T10:54:06.379Z,21.95
2018-07-03T10:55:06.372Z,22.09
2018-07-03T10:56:06.424Z,22.44
2018-07-03T10:57:06.449Z,22.54
2018-07-03T10:58:06.494Z,22.75
2018-07-03T10:59:06.573Z,22.96
2018-07-03T11:00:06.595Z,23.07
2018-07-03T11:01:06.645Z,23.32
2018-07-03T11:02:06.683Z,23.47
2018-07-03T11:03:06.755Z,23.47
2018-07-03T11:04:06.809Z,23.62
2018-07-03T11:05:06.852Z,23.79
2018-07-03T11:06:06.893Z,23.60
2018-07-03T11:07:06.953Z,23.57
2018-07-03T11:08:07.042Z,23.65
2018-07-03T11:09:07.013Z,23.82
2018-07-03T11:10:07.062Z,23.98
2018-07-03T11:11:07.135Z,24.01
2018-07-03T11:12:07.181Z,23.85
2018-07-03T11:13:07.230Z,23.79
2018-07-03T11:14:07.425Z,23.95
2018-07-03T11:15:07.315Z,23.90
2018-07-03T11:16:07.395Z,24.13
2018-07-03T11:17:07.644Z,24.31
2018-07-03T11:18:07.478Z,24.49
2018-07-03T11:19:07.554Z,24.75
2018-07-03T11:20:07.695Z,24.79
2018-07-03T11:21:07.642Z,24.92
2018-07-03T11:22:07.687Z,25.06
2018-07-03T11:23:07.928Z,25.07
2018-07-03T11:24:07.812Z,25.10
2018-07-03T11:25:07.813Z,25.16
2018-07-03T11:26:07.881Z,25.06
2018-07-03T11:27:07.934Z,25.10
2018-07-03T11:28:07.977Z,24.94
2018-07-03T11:29:08.037Z,25.17
2018-07-03T11:30:08.092Z,25.20
2018-07-03T11:31:08.137Z,25.52
2018-07-03T11:32:08.230Z,25.75
2018-07-03T11:33:08.227Z,26.04
2018-07-03T11:34:08.544Z,25.46
2018-07-03T11:35:08.343Z,25.44
2018-07-03T11:36:08.384Z,25.59
2018-07-03T11:37:08.432Z,25.67
2018-07-03T11:38:08.493Z,26.01
2018-07-03T11:39:08.540Z,26.20
2018-07-03T11:40:08.582Z,26.32
2018-07-03T11:41:08.630Z,26.59
2018-07-03T11:42:08.716Z,26.57
2018-07-03T11:43:08.760Z,26.64
2018-07-03T11:44:08.788Z,26.87
2018-07-03T11:45:08.840Z,27.01
2018-07-03T11:46:08.914Z,27.10
2018-07-03T11:47:08.982Z,27.17
2018-07-03T11:48:09.025Z,27.28
2018-07-03T11:49:09.075Z,27.46
2018-07-03T11:50:09.122Z,27.61
2018-07-03T11:51:09.363Z,27.41
2018-07-03T11:52:09.220Z,27.17
2018-07-03T11:53:09.276Z,27.31
2018-07-03T11:54:09.317Z,27.32
2018-07-03T11:55:09.358Z,27.33
2018-07-03T11:56:09.418Z,27.09
2018-07-03T11:57:09.484Z,27.39
2018-07-03T11:58:09.526Z,27.43
2018-07-03T11:59:09.601Z,27.21
2018-07-03T12:00:09.649Z,27.04
2018-07-03T12:01:09.722Z,26.99
2018-07-03T12:02:09.947Z,27.17
2018-07-03T12:03:09.793Z,27.47
2018-07-03T12:04:09.887Z,27.74
2018-07-03T12:05:09.904Z,27.94
2018-07-03T12:06:09.959Z,28.01
2018-07-03T12:07:10.014Z,28.44
2018-07-03T12:08:10.072Z,28.53
2018-07-03T12:09:10.141Z,28.72
2018-07-03T12:10:10.184Z,28.97
2018-07-03T12:11:10.285Z,29.15
2018-07-03T12:12:10.283Z,28.69
2018-07-03T12:13:10.343Z,28.56
2018-07-03T12:14:10.396Z,28.87
2018-07-03T12:15:10.442Z,28.78
2018-07-03T12:16:10.503Z,29.18
2018-07-03T12:17:10.523Z,29.43
2018-07-03T12:18:10.603Z,29.72
2018-07-03T12:19:10.865Z,29.71
2018-07-03T12:20:10.726Z,29.89
2018-07-03T12:21:10.755Z,29.74
2018-07-03T12:22:10.823Z,29.22
2018-07-03T12:23:10.889Z,29.45
2018-07-03T12:24:10.946Z,29.66
2018-07-03T12:25:10.996Z,29.52
2018-07-03T12:26:11.067Z,29.56
2018-07-03T12:27:11.125Z,29.55
2018-07-03T12:28:11.150Z,29.35
2018-07-03T12:29:11.231Z,29.41
2018-07-03T12:30:11.265Z,29.31
2018-07-03T12:31:11.338Z,29.26
2018-07-03T12:32:11.364Z,29.22
2018-07-03T12:33:11.458Z,29.25
2018-07-03T12:34:11.470Z,29.28
2018-07-03T12:35:11.729Z,29.49
2018-07-03T12:36:11.582Z,29.29
2018-07-03T12:37:11.640Z,29.62
2018-07-03T12:38:11.678Z,29.90
2018-07-03T12:39:11.753Z,29.66
2018-07-03T12:40:11.792Z,29.60
2018-07-03T12:41:11.849Z,29.94
2018-07-03T12:42:11.932Z,29.74
2018-07-03T12:43:11.994Z,29.87
2018-07-03T12:44:12.027Z,29.94
2018-07-03T12:45:12.134Z,30.03
2018-07-03T12:46:12.137Z,30.33
2018-07-03T12:47:12.242Z,30.61
2018-07-03T12:48:12.253Z,30.76
2018-07-03T12:49:12.297Z,30.75
2018-07-03T12:50:12.344Z,31.17
2018-07-03T12:51:12.411Z,31.20
2018-07-03T12:52:12.461Z,30.96
2018-07-03T12:53:12.503Z,30.31
2018-07-03T12:54:12.607Z,30.08